Time;durP1;ratioP1;P1;durP2;ratioP2;P2;SDS_P1;SDS_P2;PMS_P1;PMS_P2;Temp;Humidity;BMP_temperature;BMP_pressure;BME280_temperature;BME280_humidity;BME280_pressure;Samples;Min_cycle;Max_cycle;Signal;HPM_P1;HPM_P2
2022/04/17 00:02:15;;;;;;;4.83;4.43;;;;;;;9.46;45.14;100056.59;7046534;28;20213;-83
2022/04/17 00:05:36;;;;;;;6.73;4.00;;;;;;;9.08;45.63;100060.75;7045746;28;20198;-83
2022/04/17 00:08:58;;;;;;;4.77;4.10;;;;;;;8.96;45.85;100068.47;7045491;28;20232;-83
2022/04/17 00:12:20;;;;;;;4.90;4.10;;;;;;;8.98;46.17;100070.00;7045946;28;20683;-83
2022/04/17 00:15:41;;;;;;;7.50;3.90;;;;;;;9.21;45.42;100069.19;7046507;28;20213;-84
2022/04/17 00:19:04;;;;;;;4.30;4.00;;;;;;;9.08;45.44;100078.75;7046543;28;20205;-83
2022/04/17 00:22:26;;;;;;;5.03;4.43;;;;;;;9.00;46.19;100062.59;7046737;28;20255;-83
2022/04/17 00:25:48;;;;;;;4.07;3.77;;;;;;;9.20;45.90;100069.34;7046663;28;20576;-84
2022/04/17 00:29:10;;;;;;;5.23;3.80;;;;;;;9.16;44.99;100066.16;7045923;28;20799;-83
2022/04/17 00:32:32;;;;;;;4.80;4.10;;;;;;;8.46;45.79;99989.66;7045854;28;20289;-83
2022/04/17 00:35:54;;;;;;;5.10;4.17;;;;;;;8.65;46.75;100041.31;7046990;28;20206;-84
2022/04/17 00:39:16;;;;;;;4.60;4.03;;;;;;;8.86;45.96;100043.56;7046772;28;20223;-83
2022/04/17 00:42:40;;;;;;;5.53;3.80;;;;;;;8.75;46.53;100058.16;7046470;28;20194;-83
2022/04/17 00:46:02;;;;;;;4.90;4.40;;;;;;;9.00;45.73;100043.75;7046269;28;20213;-83
2022/04/17 00:49:24;;;;;;;5.77;4.33;;;;;;;8.74;45.54;100017.97;7045599;28;20286;-83
2022/04/17 00:52:47;;;;;;;4.33;3.93;;;;;;;8.43;46.53;100039.19;7046360;28;20200;-83
2022/04/17 00:56:10;;;;;;;4.23;3.93;;;;;;;8.50;46.57;100039.41;7045444;28;20197;-83
2022/04/17 00:59:32;;;;;;;4.43;4.10;;;;;;;8.39;47.02;100007.44;7044108;28;20233;-84
2022/04/17 01:02:53;;;;;;;4.20;3.80;;;;;;;8.42;46.44;100007.13;7044423;28;20235;-83
2022/04/17 01:06:15;;;;;;;4.23;3.83;;;;;;;8.14;47.66;100027.94;7043363;28;20199;-83
2022/04/17 01:09:39;;;;;;;3.97;3.50;;;;;;;8.47;46.83;100015.53;7045108;28;20274;-83
2022/04/17 01:13:03;;;;;;;4.53;3.87;;;;;;;8.26;47.39;100017.81;7046785;28;20193;-81
2022/04/17 01:16:25;;;;;;;4.27;3.70;;;;;;;8.13;47.49;100022.75;7048499;28;20268;-83
2022/04/17 01:19:47;;;;;;;3.97;3.40;;;;;;;7.77;48.64;100015.84;7048020;28;20221;-82
2022/04/17 01:26:58;;;;;;;7.17;4.17;;;;;;;7.57;48.68;100001.75;7044849;28;20249;-83
2022/04/17 01:30:20;;;;;;;6.83;3.87;;;;;;;7.63;49.04;100001.13;7044884;28;20220;-83
2022/04/17 01:33:42;;;;;;;5.23;3.63;;;;;;;7.72;48.50;99994.81;7042234;28;20308;-82
2022/04/17 01:37:04;;;;;;;4.40;3.60;;;;;;;7.80;48.35;100005.63;7043755;28;20216;-83
2022/04/17 01:40:27;;;;;;;4.60;3.33;;;;;;;7.46;48.07;99951.03;7045296;28;20221;-82
2022/04/17 01:43:49;;;;;;;6.47;3.80;;;;;;;7.57;48.63;100011.66;7044682;28;20197;-83
2022/04/17 01:47:10;;;;;;;4.07;3.73;;;;;;;7.58;48.77;99986.50;7043307;28;20718;-83
2022/04/17 01:50:32;;;;;;;4.13;3.83;;;;;;;7.59;48.42;99980.97;7043365;28;20229;-83
2022/04/17 01:53:54;;;;;;;4.47;4.07;;;;;;;6.74;50.55;99966.53;7043621;28;20205;-82
2022/04/17 01:57:17;;;;;;;6.47;3.90;;;;;;;7.43;49.21;99996.94;7043205;28;20201;-83
2022/04/17 02:00:39;;;;;;;4.00;3.70;;;;;;;7.55;49.16;100000.25;7044078;28;20228;-83
2022/04/17 02:04:01;;;;;;;3.53;3.20;;;;;;;7.66;48.75;99992.75;7043885;28;20212;-83
2022/04/17 02:07:22;;;;;;;3.90;3.60;;;;;;;7.53;48.45;100013.81;7042170;28;20237;-83
2022/04/17 02:10:44;;;;;;;6.47;3.90;;;;;;;7.29;50.07;99997.53;7042112;28;20305;-83
2022/04/17 02:14:07;;;;;;;3.90;3.60;;;;;;;7.50;49.19;99989.97;7041643;28;20240;-83
2022/04/17 02:17:30;;;;;;;4.53;4.13;;;;;;;7.22;48.52;99953.56;7031169;28;20205;-82
2022/04/17 02:20:53;;;;;;;6.17;4.03;;;;;;;6.98;49.97;99987.34;7031536;28;20232;-82
2022/04/17 02:24:15;;;;;;;5.47;5.00;;;;;;;7.15;49.62;99973.94;7032185;28;20224;-82
2022/04/17 02:27:37;;;;;;;3.80;3.50;;;;;;;7.07;49.74;99973.03;7030635;28;20362;-82
2022/04/17 02:31:00;;;;;;;3.70;3.40;;;;;;;7.09;49.83;99971.88;7029209;28;20266;-82
2022/04/17 02:34:22;;;;;;;4.50;4.10;;;;;;;7.34;49.12;99963.03;7030067;28;20188;-82
2022/04/17 02:50:43;;;;;;;4.50;4.20;;;;;;;6.07;52.08;99952.72;6973501;28;20231;-82
2022/04/17 02:54:44;;;;;;;3.83;3.47;;;;;;;6.75;50.79;99936.06;6973303;28;20263;-81
2022/04/17 02:58:06;;;;;;;4.20;3.80;;;;;;;7.05;50.64;99969.66;6972029;28;20193;-81
2022/04/17 03:08:47;;;;;;;4.20;3.80;;;;;;;6.52;50.86;99908.03;6971514;28;20213;-82
2022/04/17 03:12:09;;;;;;;4.37;4.03;;;;;;;6.50;51.20;99920.75;6972722;28;20241;-81
2022/04/17 03:15:30;;;;;;;4.23;3.83;;;;;;;6.77;50.68;99949.31;6987918;28;20694;-81
2022/04/17 03:18:53;;;;;;;4.27;3.97;;;;;;;6.57;51.21;99942.38;7031546;28;20577;-81
2022/04/17 03:22:15;;;;;;;5.67;4.07;;;;;;;6.06;52.00;99883.25;7037744;28;20219;-81
2022/04/17 03:25:39;;;;;;;4.23;3.83;;;;;;;6.33;52.10;99947.50;7037459;28;20232;-81
2022/04/17 03:29:01;;;;;;;4.67;4.03;;;;;;;6.61;51.29;99927.72;7037782;28;20274;-81
2022/04/17 03:32:23;;;;;;;5.00;4.50;;;;;;;6.50;50.98;99867.16;7036178;28;20218;-81
2022/04/17 03:35:46;;;;;;;5.10;4.60;;;;;;;6.93;50.50;99928.84;7037581;28;20194;-82
2022/04/17 03:39:08;;;;;;;6.13;4.90;;;;;;;6.28;51.66;99937.25;7036493;28;20208;-80
2022/04/17 03:42:29;;;;;;;4.73;4.20;;;;;;;6.79;50.82;99966.88;7036880;28;20723;-82
2022/04/17 03:45:51;;;;;;;5.63;4.33;;;;;;;6.55;50.80;99928.31;7035399;28;20216;-82
2022/04/17 03:49:12;;;;;;;5.00;4.30;;;;;;;6.46;50.92;99918.50;7047715;28;20242;-82
2022/04/17 03:52:42;;;;;;;4.77;4.37;;;;;;;6.87;49.81;99955.41;7048631;28;20194;-82
2022/04/17 03:56:05;;;;;;;5.10;4.60;;;;;;;6.02;51.11;99855.13;7046844;28;20200;-81
2022/04/17 04:17:01;;;;;;;5.37;4.87;;;;;;;5.93;51.99;99955.03;7049112;28;20254;-82
2022/04/17 04:20:23;;;;;;;4.63;4.23;;;;;;;6.04;52.65;99915.56;7049924;28;20224;-82
2022/04/17 04:23:44;;;;;;;5.17;4.77;;;;;;;6.42;51.46;99931.34;7050466;28;20237;-81
2022/04/17 04:30:46;;;;;;;6.60;4.77;;;;;;;5.67;52.55;99866.53;7047382;28;20220;-82
2022/04/17 04:34:09;;;;;;;5.37;4.73;;;;;;;5.86;52.05;99881.69;7046243;28;20212;-84
2022/04/17 04:37:30;;;;;;;5.47;4.57;;;;;;;5.64;52.37;99879.38;7043814;28;20287;-82
2022/04/17 04:40:52;;;;;;;5.63;5.13;;;;;;;6.24;52.01;99916.28;7045491;28;20232;-81
2022/04/17 04:44:14;;;;;;;6.60;4.57;;;;;;;6.39;51.46;99955.78;7045811;28;20439;-82
2022/04/17 04:47:36;;;;;;;7.03;5.07;;;;;;;6.33;50.50;99915.34;7045497;28;20231;-80
2022/04/17 04:50:59;;;;;;;5.13;4.67;;;;;;;6.30;51.39;99940.59;7046114;28;20228;-81
2022/04/17 04:54:21;;;;;;;5.43;4.93;;;;;;;6.00;51.83;99926.69;7047537;28;20209;-81
2022/04/17 04:57:42;;;;;;;4.83;4.43;;;;;;;6.27;51.38;99940.91;7045665;28;20216;-82
2022/04/17 05:01:07;;;;;;;5.30;4.80;;;;;;;6.55;50.03;99885.44;7046102;28;20238;-81
2022/04/17 05:08:47;;;;;;;7.07;4.80;;;;;;;5.46;52.80;99930.13;7046797;28;20212;-82
2022/04/17 05:12:09;;;;;;;6.10;5.60;;;;;;;5.75;52.88;99954.09;7047076;28;20224;-82
2022/04/17 05:15:30;;;;;;;5.67;5.13;;;;;;;5.64;54.06;99964.97;7048333;28;20230;-82
2022/04/17 05:19:18;;;;;;;6.10;5.50;;;;;;;6.21;52.72;99960.28;7047555;28;20212;-82
2022/04/17 05:22:35;;;;;;;9.07;6.40;;;;;;;6.58;50.88;99969.03;7047798;28;20215;-81
2022/04/17 05:25:59;;;;;;;5.87;5.27;;;;;;;6.84;49.75;99961.09;7046984;28;20204;-82
2022/04/17 05:29:20;;;;;;;6.00;5.40;;;;;;;6.25;50.23;99966.16;7048322;28;20227;-82
2022/04/17 05:32:44;;;;;;;6.63;5.67;;;;;;;5.26;53.55;99957.91;7047389;28;20208;-82
2022/04/17 05:36:06;;;;;;;6.30;5.63;;;;;;;5.78;53.00;99965.34;7046236;28;20264;-83
2022/04/17 05:39:27;;;;;;;6.50;5.90;;;;;;;6.50;52.49;99962.75;7045490;28;20224;-84
2022/04/17 05:42:51;;;;;;;5.93;5.40;;;;;;;7.15;50.51;99920.31;7044639;28;20212;-84
2022/04/17 05:46:35;;;;;;;8.00;6.20;;;;;;;7.80;48.45;99935.81;7042563;28;20211;-84
2022/04/17 05:49:58;;;;;;;6.80;5.40;;;;;;;8.61;47.27;99943.16;7043630;28;20231;-82
2022/04/17 05:53:20;;;;;;;8.10;5.97;;;;;;;8.71;45.46;99895.47;7045336;28;20209;-82
2022/04/17 05:56:42;;;;;;;10.37;6.57;;;;;;;9.38;45.71;99936.31;7045823;28;20269;-82
2022/04/17 06:00:08;;;;;;;8.53;6.30;;;;;;;9.03;45.19;99939.34;7046560;28;20224;-82
2022/04/17 06:03:30;;;;;;;9.37;6.33;;;;;;;10.16;42.66;99926.53;7045469;28;20193;-83
2022/04/17 06:06:52;;;;;;;8.20;5.93;;;;;;;9.68;43.39;99950.91;7044089;28;20216;-85
2022/04/17 06:10:14;;;;;;;6.33;5.20;;;;;;;9.40;43.73;99893.91;7038242;28;20228;-84
2022/04/17 06:13:36;;;;;;;5.67;5.17;;;;;;;9.95;43.68;99939.72;7029250;28;20200;-86
2022/04/17 06:16:59;;;;;;;5.93;4.70;;;;;;;9.99;43.39;99925.72;7025725;28;20213;-84
2022/04/17 06:20:21;;;;;;;4.90;4.30;;;;;;;11.04;41.24;99902.53;7029829;28;20225;-82
2022/04/17 06:23:42;;;;;;;4.33;3.93;;;;;;;12.17;38.49;99927.34;7025492;28;20213;-83
2022/04/17 06:27:04;;;;;;;5.77;4.17;;;;;;;12.67;36.75;99915.69;7037371;28;20208;-82
2022/04/17 06:30:29;;;;;;;3.57;3.27;;;;;;;12.96;34.99;99902.94;7038030;28;20233;-85
2022/04/17 06:33:52;;;;;;;4.67;3.27;;;;;;;12.61;35.01;99865.91;7033666;28;20205;-84
2022/04/17 06:37:13;;;;;;;3.47;3.17;;;;;;;13.09;34.61;99907.66;7031517;28;20233;-84
2022/04/17 06:40:36;;;;;;;5.33;3.73;;;;;;;13.39;33.49;99863.09;7031336;28;20220;-82
2022/04/17 06:43:58;;;;;;;3.13;2.83;;;;;;;13.58;32.97;99873.22;7023070;28;20203;-82
2022/04/17 06:47:19;;;;;;;2.97;2.67;;;;;;;13.88;32.69;99901.78;7030668;28;20219;-81
2022/04/17 06:50:42;;;;;;;3.13;2.90;;;;;;;14.16;31.61;99886.28;7030931;28;20316;-82
2022/04/17 06:54:05;;;;;;;3.90;2.97;;;;;;;14.11;31.92;99899.63;7033299;28;20213;-83
2022/04/17 06:57:30;;;;;;;3.27;2.90;;;;;;;14.67;30.76;99885.66;7037528;28;20587;-82
2022/04/17 07:00:51;;;;;;;3.10;2.80;;;;;;;14.83;30.23;99896.16;7038462;28;20228;-79
2022/04/17 07:04:13;;;;;;;3.20;2.90;;;;;;;14.97;31.26;99899.72;7037922;28;20569;-78
2022/04/17 07:07:36;;;;;;;2.97;2.77;;;;;;;14.99;30.35;99901.19;7035741;28;20210;-77
2022/04/17 07:10:57;;;;;;;3.90;3.03;;;;;;;14.74;30.92;99893.84;7035125;28;20319;-77
2022/04/17 07:14:19;;;;;;;2.93;2.70;;;;;;;13.89;32.58;99887.19;7036256;28;20373;-77
2022/04/17 07:17:41;;;;;;;5.97;3.10;;;;;;;15.13;31.04;99891.16;7035013;28;20699;-77
2022/04/17 07:21:03;;;;;;;3.47;2.60;;;;;;;14.76;30.57;99894.47;7036011;28;20243;-77
2022/04/17 07:24:26;;;;;;;4.63;2.50;;;;;;;14.54;30.75;99887.50;7035504;28;20794;-77
2022/04/17 07:27:49;;;;;;;3.60;2.80;;;;;;;13.98;32.41;99881.38;7035402;28;20230;-77
2022/04/17 07:31:11;;;;;;;3.23;2.93;;;;;;;14.62;31.40;99887.34;7035019;28;20224;-77
2022/04/17 07:34:32;;;;;;;3.47;3.17;;;;;;;14.11;31.37;99861.66;7036033;28;20302;-77
2022/04/17 07:37:55;;;;;;;3.03;2.70;;;;;;;13.82;32.03;99860.06;7035705;28;20697;-77
2022/04/17 07:41:18;;;;;;;4.33;2.63;;;;;;;14.21;31.92;99868.38;7035529;28;20264;-77
2022/04/17 07:44:40;;;;;;;3.07;2.87;;;;;;;13.17;32.87;99858.75;7035960;28;20210;-77
2022/04/17 07:48:01;;;;;;;3.37;2.87;;;;;;;14.01;33.13;99862.03;7034922;28;20215;-77
2022/04/17 07:51:23;;;;;;;4.27;2.80;;;;;;;14.46;31.09;99857.84;7035537;28;20254;-77
2022/04/17 07:54:46;;;;;;;3.73;3.07;;;;;;;14.82;30.84;99842.88;7035194;28;20212;-79
2022/04/17 07:58:12;;;;;;;6.17;2.70;;;;;;;14.99;30.54;99848.75;7038314;28;20542;-80
2022/04/17 08:01:39;;;;;;;4.57;3.47;;;;;;;16.51;28.53;99841.75;7037989;28;20361;-80
2022/04/17 08:05:00;;;;;;;2.83;2.63;;;;;;;14.62;30.12;99857.47;7038120;28;20352;-79
2022/04/17 08:08:22;;;;;;;3.60;3.07;;;;;;;13.38;32.21;99845.16;7036292;28;20223;-79
2022/04/17 08:11:51;;;;;;;2.90;2.70;;;;;;;14.16;31.51;99848.31;7041291;28;20242;-79
2022/04/17 08:15:14;;;;;;;2.97;2.73;;;;;;;14.56;31.09;99825.69;7037936;28;20206;-79
2022/04/17 08:18:36;;;;;;;3.40;2.60;;;;;;;14.46;30.28;99860.56;7037158;28;20215;-80
2022/04/17 08:21:57;;;;;;;2.93;2.50;;;;;;;14.18;31.37;99846.22;7038785;28;20252;-79
2022/04/17 08:25:19;;;;;;;3.80;2.70;;;;;;;14.06;30.97;99847.84;7035607;28;20219;-77
2022/04/17 08:28:40;;;;;;;3.40;2.53;;;;;;;14.98;29.46;99828.91;7034574;28;20227;-77
2022/04/17 08:32:04;;;;;;;6.33;2.93;;;;;;;14.95;29.82;99839.34;7035039;28;20285;-78
2022/04/17 08:35:25;;;;;;;2.57;2.37;;;;;;;14.77;29.26;99842.69;7035940;28;20246;-78
2022/04/17 08:38:47;;;;;;;3.20;2.40;;;;;;;16.05;28.18;99813.91;7035857;28;20226;-79
2022/04/17 08:42:08;;;;;;;2.73;2.27;;;;;;;15.03;29.27;99820.97;7036058;28;20228;-78
2022/04/17 08:45:30;;;;;;;4.03;2.37;;;;;;;17.28;27.72;99817.72;7035869;28;20251;-78
2022/04/17 08:48:53;;;;;;;2.50;2.30;;;;;;;17.24;26.91;99819.22;7035291;28;20225;-79
2022/04/17 08:52:16;;;;;;;4.77;2.30;;;;;;;16.44;26.33;99811.00;7035643;28;20224;-78
2022/04/17 08:55:37;;;;;;;2.97;2.40;;;;;;;17.80;26.38;99792.69;7036155;28;20208;-79
2022/04/17 08:59:00;;;;;;;2.43;2.23;;;;;;;17.02;25.84;99777.06;7036124;28;20209;-79
2022/04/17 09:02:22;;;;;;;2.50;2.30;;;;;;;16.48;25.64;99777.69;7035986;28;20217;-78
2022/04/17 09:05:45;;;;;;;3.00;2.53;;;;;;;18.11;23.93;99751.56;7035386;28;20319;-78
2022/04/17 09:09:07;;;;;;;1.90;1.80;;;;;;;16.97;24.07;99746.91;7035245;28;20228;-79
2022/04/17 09:12:29;;;;;;;2.60;2.40;;;;;;;18.09;24.92;99742.75;7034814;28;20205;-78
2022/04/17 09:15:50;;;;;;;2.60;2.20;;;;;;;16.54;24.62;99746.00;7035261;28;20715;-79
2022/04/17 09:19:13;;;;;;;2.27;1.90;;;;;;;16.84;25.17;99723.38;7034484;28;20305;-79
2022/04/17 09:22:47;;;;;;;3.77;2.00;;;;;;;16.79;24.89;99720.47;7034910;28;20205;-79
2022/04/17 09:26:09;;;;;;;3.17;2.07;;;;;;;16.83;24.37;99718.13;7035311;28;20277;-78
2022/04/17 09:29:33;;;;;;;3.50;1.97;;;;;;;16.92;24.97;99728.53;7034553;28;20232;-79
2022/04/17 09:32:55;;;;;;;2.47;2.00;;;;;;;15.67;25.20;99691.47;7035552;28;20209;-79
2022/04/17 09:36:17;;;;;;;4.80;1.90;;;;;;;16.79;24.43;99719.63;7035124;28;20201;-79
2022/04/17 09:39:40;;;;;;;2.60;2.00;;;;;;;17.01;24.34;99715.44;7035482;28;20224;-79
2022/04/17 09:43:12;;;;;;;2.07;1.87;;;;;;;16.20;25.14;99706.44;7035542;28;20285;-79
2022/04/17 09:46:33;;;;;;;2.20;1.90;;;;;;;15.05;26.73;99712.94;7035746;28;20258;-79
2022/04/17 09:49:57;;;;;;;2.90;2.10;;;;;;;15.98;25.74;99705.09;7035210;28;20844;-79
2022/04/17 09:53:35;;;;;;;2.00;1.90;;;;;;;16.64;24.87;99694.63;7034778;28;20212;-79
2022/04/17 09:56:58;;;;;;;2.10;1.90;;;;;;;16.08;25.23;99693.75;7034359;28;20208;-78
2022/04/17 10:00:20;;;;;;;2.20;1.90;;;;;;;16.90;25.05;99687.06;7034813;28;20718;-78
2022/04/17 10:03:41;;;;;;;2.80;1.87;;;;;;;19.17;23.01;99691.22;7034525;28;20286;-79
2022/04/17 10:07:04;;;;;;;1.93;1.80;;;;;;;16.97;24.82;99693.28;7034774;28;20198;-79
2022/04/17 10:10:26;;;;;;;2.27;2.03;;;;;;;16.96;23.88;99693.47;7036249;28;20719;-79
2022/04/17 10:13:49;;;;;;;3.17;1.57;;;;;;;16.57;23.97;99694.69;7034671;28;20283;-79
2022/04/17 10:17:11;;;;;;;1.70;1.60;;;;;;;16.47;23.18;99688.91;7034718;28;20220;-79
2022/04/17 10:20:32;;;;;;;3.93;2.10;;;;;;;16.88;23.58;99640.13;7034736;28;20392;-79
2022/04/17 10:24:01;;;;;;;2.37;1.80;;;;;;;18.99;21.92;99679.59;7045522;28;20222;-79
2022/04/17 10:27:24;;;;;;;2.43;1.90;;;;;;;19.56;21.71;99667.75;7035321;28;20327;-79
2022/04/17 10:31:01;;;;;;;3.73;1.90;;;;;;;18.00;22.82;99662.28;7034011;28;20234;-78
2022/04/17 10:34:48;;;;;;;2.23;1.80;;;;;;;17.24;22.87;99678.31;7032954;28;20201;-79
2022/04/17 10:38:26;;;;;;;1.60;1.50;;;;;;;18.54;21.57;99662.94;7033889;28;20280;-79
2022/04/17 10:41:49;;;;;;;2.30;1.67;;;;;;;19.27;22.50;99650.47;7020299;28;20240;-79
2022/04/17 10:45:11;;;;;;;1.80;1.70;;;;;;;19.60;21.17;99652.53;7018797;28;20201;-79
2022/04/17 10:48:42;;;;;;;3.30;2.10;;;;;;;18.96;21.13;99647.25;7018264;28;20248;-79
2022/04/17 10:52:05;;;;;;;2.80;2.07;;;;;;;18.17;24.52;99649.63;7009411;28;20280;-79
2022/04/17 10:55:26;;;;;;;2.20;2.00;;;;;;;17.43;22.50;99644.56;7015302;28;20582;-80
2022/04/17 10:58:51;;;;;;;2.63;1.90;;;;;;;17.85;22.78;99629.94;7008705;28;20218;-80
2022/04/17 11:02:25;;;;;;;1.90;1.80;;;;;;;19.55;21.53;99614.97;7007782;28;20231;-79
2022/04/17 11:09:28;;;;;;;3.17;1.90;;;;;;;19.68;20.99;99609.19;7033534;28;20225;-79
2022/04/17 11:12:54;;;;;;;2.17;1.90;;;;;;;19.40;20.30;99611.09;7033432;28;20207;-79
2022/04/17 11:16:16;;;;;;;3.40;2.20;;;;;;;19.10;21.92;99615.88;7033108;28;20209;-81
2022/04/17 11:19:39;;;;;;;2.97;1.90;;;;;;;19.66;21.99;99600.41;7031571;28;20291;-78
2022/04/17 11:23:02;;;;;;;6.00;2.00;;;;;;;20.43;21.06;99604.28;7032036;28;20222;-77
2022/04/17 11:26:57;;;;;;;2.53;2.20;;;;;;;19.64;21.16;99594.34;7032918;28;20206;-79
2022/04/17 11:30:33;;;;;;;2.30;2.10;;;;;;;18.29;22.91;99612.28;7024114;28;20707;-78
2022/04/17 11:34:00;;;;;;;2.27;1.93;;;;;;;18.29;23.44;99602.16;7027278;28;20204;-79
2022/04/17 11:37:22;;;;;;;1.97;1.73;;;;;;;19.85;21.69;99579.97;7033329;28;20257;-79
2022/04/17 11:40:49;;;;;;;2.00;1.80;;;;;;;20.60;19.88;99580.44;7007675;28;20228;-78
2022/04/17 11:44:11;;;;;;;1.87;1.73;;;;;;;19.31;21.56;99566.88;7011366;28;20213;-79
2022/04/17 11:47:39;;;;;;;2.10;2.00;;;;;;;17.68;23.23;99579.00;7010831;28;20665;-79
2022/04/17 11:51:00;;;;;;;2.60;2.40;;;;;;;19.65;22.69;99567.81;7010598;28;20310;-79
2022/04/17 11:54:31;;;;;;;1.90;1.80;;;;;;;21.07;20.66;99570.75;7011012;28;20201;-79
2022/04/17 11:57:55;;;;;;;2.20;2.00;;;;;;;19.72;21.73;99569.34;7010559;28;20209;-79
2022/04/17 12:01:23;;;;;;;2.07;1.90;;;;;;;20.02;22.36;99567.16;7011002;28;20227;-79
2022/04/17 12:04:46;;;;;;;2.77;2.10;;;;;;;19.32;23.28;99568.53;7010742;28;20209;-78
2022/04/17 12:08:10;;;;;;;2.70;2.50;;;;;;;18.87;21.53;99550.31;7009713;28;20213;-79
2022/04/17 12:11:33;;;;;;;1.80;1.70;;;;;;;19.96;20.95;99565.41;7010663;28;20320;-79
2022/04/17 12:14:58;;;;;;;2.23;2.00;;;;;;;19.49;21.65;99563.13;7010243;28;20211;-78
2022/04/17 12:18:20;;;;;;;2.03;1.80;;;;;;;19.45;21.74;99534.63;7009836;28;20217;-79
2022/04/17 12:21:41;;;;;;;4.90;2.30;;;;;;;20.55;22.01;99534.63;7011037;28;20766;-79
2022/04/17 12:25:03;;;;;;;2.67;1.73;;;;;;;19.29;21.63;99528.00;7010223;28;20212;-79
2022/04/17 12:28:25;;;;;;;3.07;1.57;;;;;;;20.21;20.96;99534.88;7009813;28;20202;-79
2022/04/17 12:31:48;;;;;;;3.30;1.97;;;;;;;20.70;20.90;99514.84;7009166;28;20717;-79
2022/04/17 12:35:13;;;;;;;2.97;1.70;;;;;;;21.21;19.65;99479.59;7010792;28;20724;-79
2022/04/17 12:38:35;;;;;;;1.70;1.60;;;;;;;20.27;21.65;99512.00;7010281;28;20215;-79
2022/04/17 12:41:57;;;;;;;2.20;1.70;;;;;;;20.27;20.66;99506.53;7009326;28;20720;-79
2022/04/17 12:45:26;;;;;;;2.83;1.67;;;;;;;20.50;20.60;99512.63;7010115;28;20669;-79
2022/04/17 12:49:02;;;;;;;2.03;1.60;;;;;;;19.55;21.71;99499.22;7009330;28;20247;-79
2022/04/17 12:52:24;;;;;;;1.73;1.63;;;;;;;19.65;21.33;99507.63;7009679;28;20234;-79
2022/04/17 12:55:45;;;;;;;2.03;1.60;;;;;;;19.24;21.38;99508.78;7007632;28;20209;-77
2022/04/17 12:59:08;;;;;;;2.40;2.20;;;;;;;19.16;21.89;99486.44;7008588;28;20234;-78
2022/04/17 13:02:29;;;;;;;1.77;1.67;;;;;;;19.74;20.79;99485.06;7010829;28;20204;-79
2022/04/17 13:06:00;;;;;;;1.97;1.60;;;;;;;20.61;20.33;99473.34;7010040;28;20224;-78
2022/04/17 13:09:23;;;;;;;2.17;1.97;;;;;;;19.19;20.40;99484.03;7009962;28;20231;-79
2022/04/17 13:12:45;;;;;;;2.13;1.77;;;;;;;19.41;20.43;99474.06;7027658;28;20332;-78
2022/04/17 13:16:08;;;;;;;2.10;1.87;;;;;;;19.95;20.03;99462.47;7028715;28;20215;-78
2022/04/17 13:19:30;;;;;;;1.73;1.63;;;;;;;20.64;19.01;99444.59;7010228;28;20490;-78
2022/04/17 13:22:54;;;;;;;2.47;1.90;;;;;;;19.37;19.63;99444.72;7010736;28;20287;-81
2022/04/17 13:26:15;;;;;;;2.00;1.80;;;;;;;19.87;18.80;99470.25;7011628;28;20252;-78
2022/04/17 13:29:37;;;;;;;1.90;1.80;;;;;;;18.67;20.14;99457.81;7024796;28;20250;-78
2022/04/17 13:33:00;;;;;;;2.33;1.87;;;;;;;19.75;20.30;99445.69;7028201;28;20232;-79
2022/04/17 13:36:21;;;;;;;2.50;1.80;;;;;;;20.31;19.41;99412.66;7025960;28;20191;-78
2022/04/17 13:39:44;;;;;;;2.10;1.80;;;;;;;20.07;19.55;99429.53;7033644;28;20219;-79
2022/04/17 13:43:06;;;;;;;1.73;1.60;;;;;;;19.64;19.58;99446.59;7042375;28;20185;-79
2022/04/17 13:46:31;;;;;;;1.60;1.50;;;;;;;19.60;18.02;99429.03;7041061;28;20202;-78
2022/04/17 13:49:53;;;;;;;2.30;1.43;;;;;;;19.69;18.54;99418.50;7043762;28;20209;-78
2022/04/17 13:53:14;;;;;;;1.80;1.70;;;;;;;19.86;19.43;99417.41;7041751;28;20237;-79
2022/04/17 13:56:37;;;;;;;1.80;1.70;;;;;;;19.08;20.08;99419.28;7036966;28;20178;-79
2022/04/17 13:59:59;;;;;;;2.43;1.80;;;;;;;19.19;19.83;99393.81;7037823;28;20206;-79
2022/04/17 14:03:21;;;;;;;1.70;1.60;;;;;;;18.40;19.57;99366.56;7055764;28;20209;-79
2022/04/17 14:06:43;;;;;;;2.53;1.70;;;;;;;19.58;19.65;99359.22;7056011;28;20205;-79
2022/04/17 14:10:05;;;;;;;2.20;1.90;;;;;;;18.86;20.21;99366.41;7056423;28;20312;-79
2022/04/17 14:13:28;;;;;;;1.70;1.60;;;;;;;18.60;21.17;99364.25;7056532;28;20196;-79
2022/04/17 14:16:50;;;;;;;1.93;1.73;;;;;;;19.71;21.31;99351.50;7055815;28;20220;-79
2022/04/17 14:20:12;;;;;;;1.70;1.60;;;;;;;19.34;20.35;99353.06;7054695;28;20229;-79
2022/04/17 14:23:33;;;;;;;1.70;1.60;;;;;;;18.95;21.84;99358.63;7042575;28;20204;-79
2022/04/17 14:26:55;;;;;;;1.97;1.77;;;;;;;20.24;21.46;99343.56;7044661;28;20211;-80
2022/04/17 14:30:18;;;;;;;2.17;1.80;;;;;;;19.57;21.97;99325.56;7043494;28;20228;-79
2022/04/17 14:33:39;;;;;;;2.70;1.90;;;;;;;19.02;21.91;99346.47;7042124;28;20201;-79
2022/04/17 14:37:01;;;;;;;1.70;1.60;;;;;;;19.43;21.06;99345.28;7039928;28;20199;-79
2022/04/17 14:40:22;;;;;;;3.20;1.83;;;;;;;20.15;20.67;99347.78;7040070;28;20216;-79
2022/04/17 14:43:44;;;;;;;1.60;1.50;;;;;;;19.93;21.68;99310.50;7036828;28;20544;-79
2022/04/17 14:47:08;;;;;;;1.83;1.73;;;;;;;20.08;20.26;99338.09;7005965;28;20208;-79
2022/04/17 14:50:29;;;;;;;3.40;1.70;;;;;;;20.53;19.46;99314.88;7005684;28;20491;-79
2022/04/17 14:53:51;;;;;;;2.40;2.20;;;;;;;19.00;21.35;99337.69;7013247;28;20940;-79
2022/04/17 14:57:13;;;;;;;1.77;1.57;;;;;;;18.99;21.12;99302.41;7033838;28;20229;-79
2022/04/17 15:00:34;;;;;;;2.53;1.77;;;;;;;20.15;20.35;99314.94;7034757;28;20221;-80
2022/04/17 15:03:57;;;;;;;1.90;1.70;;;;;;;19.82;20.19;99308.69;7033440;28;20206;-78
2022/04/17 15:07:19;;;;;;;2.03;1.70;;;;;;;20.23;20.06;99303.53;7033722;28;20207;-78
2022/04/17 15:10:40;;;;;;;2.43;1.70;;;;;;;20.34;19.61;99313.53;7033509;28;20321;-79
2022/04/17 15:14:04;;;;;;;2.23;2.13;;;;;;;19.89;19.06;99309.34;7034522;28;20201;-80
2022/04/17 15:17:26;;;;;;;1.70;1.60;;;;;;;18.77;20.20;99310.50;7038165;28;20346;-80
2022/04/17 15:20:49;;;;;;;1.63;1.53;;;;;;;19.75;20.26;99295.19;7039620;28;20227;-80
2022/04/17 15:24:10;;;;;;;1.77;1.50;;;;;;;20.10;19.42;99284.75;7038373;28;20218;-80
2022/04/17 15:27:32;;;;;;;1.70;1.60;;;;;;;20.45;19.29;99273.41;7038520;28;20573;-78
2022/04/17 15:30:53;;;;;;;2.30;2.10;;;;;;;19.52;19.69;99298.13;7040131;28;20311;-80
2022/04/17 15:34:15;;;;;;;1.83;1.73;;;;;;;19.66;19.79;99269.34;7038636;28;20663;-80
2022/04/17 15:37:38;;;;;;;1.80;1.60;;;;;;;20.22;18.73;99254.50;7017217;28;20214;-78
2022/04/17 15:41:00;;;;;;;1.47;1.37;;;;;;;19.66;19.13;99263.88;7011097;28;20272;-79
2022/04/17 15:48:06;;;;;;;2.43;2.07;;;;;;;19.25;20.19;99268.97;7022380;28;20204;-80
2022/04/17 15:51:29;;;;;;;2.23;2.03;;;;;;;19.69;20.38;99276.22;7016893;28;20233;-79
2022/04/17 15:54:52;;;;;;;2.30;1.80;;;;;;;20.08;20.46;99267.75;7020293;28;20206;-82
2022/04/17 15:58:14;;;;;;;2.10;1.90;;;;;;;20.17;20.19;99262.66;7016336;28;20567;-80
2022/04/17 16:01:36;;;;;;;2.03;1.93;;;;;;;19.79;20.05;99259.94;7024433;28;20221;-78
2022/04/17 16:04:59;;;;;;;1.83;1.60;;;;;;;20.49;20.28;99271.78;7026361;28;20206;-79
2022/04/17 16:08:21;;;;;;;2.33;1.97;;;;;;;20.54;20.61;99260.88;7024232;28;20676;-80
2022/04/17 16:11:44;;;;;;;2.73;1.70;;;;;;;19.82;20.38;99268.47;7025074;28;20597;-79
2022/04/17 16:15:07;;;;;;;1.97;1.83;;;;;;;19.76;20.92;99242.09;7018129;28;20207;-80
2022/04/17 16:18:29;;;;;;;1.80;1.70;;;;;;;20.23;20.47;99276.16;7009050;28;20222;-80
2022/04/17 16:21:51;;;;;;;2.27;1.50;;;;;;;20.27;19.91;99268.28;7008788;28;20303;-80
2022/04/17 16:25:13;;;;;;;1.70;1.60;;;;;;;19.86;21.15;99263.34;7009677;28;20304;-80
2022/04/17 16:28:36;;;;;;;1.87;1.77;;;;;;;19.86;20.64;99245.00;7008280;28;20260;-80
2022/04/17 16:31:57;;;;;;;2.90;2.10;;;;;;;19.27;20.86;99262.19;7009440;28;20233;-80
2022/04/17 16:35:19;;;;;;;2.37;1.87;;;;;;;19.00;22.12;99265.81;7033521;28;20293;-81
2022/04/17 16:38:41;;;;;;;2.77;2.10;;;;;;;18.20;22.61;99264.25;7037117;28;20325;-80
2022/04/17 16:42:03;;;;;;;2.00;1.80;;;;;;;19.33;21.39;99244.78;7036775;28;20229;-80
2022/04/17 16:45:26;;;;;;;1.97;1.77;;;;;;;19.17;21.90;99252.97;7036885;28;20212;-80
2022/04/17 16:48:47;;;;;;;3.03;1.60;;;;;;;19.49;21.54;99246.66;7035947;28;20228;-79
2022/04/17 16:52:09;;;;;;;2.10;1.90;;;;;;;18.88;21.54;99230.34;7035623;28;20257;-79
2022/04/17 16:55:30;;;;;;;2.37;1.80;;;;;;;18.95;21.60;99243.84;7035778;28;20206;-79
2022/04/17 17:02:34;;;;;;;2.10;1.90;;;;;;;18.57;21.24;99255.47;7033572;28;20201;-79